Airfield :
LOGIN :

Register | Disclaimer

   EN    FR    IT 

 










Legend :    VFR   Marginal VFR   IFR   Intensive IFR   Very Intensive IFR
Visi :
Ceiling :
>= 8 km
>= 3000ft
5 to 8 km
1000 to 3000 ft
1500m to 5 km
500 to 1000 ft
800 to 1500m
200 to 500 ft
< 800m
< 200 ft
Symbols :   Thunderstorms  Fog  Heavy snow  Heavy precipitations  Wind > 20 kt
SIGMETs :     Misc.  Thunderstorms  Icing  Turbulence  Mountain Waves  Volcanic Ashes






- Airport Elevation : 407 ft


EGDM - MoD Boscombe Down Amesbury

CURRENT METAR :
  • 201450Z 19016KT 9999 SCT020 16/13 Q1000 TEMPO FEW020 RMK WHT TEMPO BLU

EXPIRED METARs :
  • 201422Z 19017KT 9999 SCT022 SCT030 17/13 Q1000 TEMPO FEW022 RMK WHT TEMPO BLU
  • 201350Z 19014KT 9999 FEW018 SCT026 17/13 Q1000 TEMPO SCT018 RMK BLU TEMPO WHT
  • 201320Z 19016KT 9999 SCT015 16/14 Q1000 NOSIG RMK WHT WHT
  • 201250Z 19016KT 9999 SCT016 BKN032 16/13 Q1000 NOSIG RMK WHT WHT
  • 201220Z 20016KT 9999 SCT024 BKN032 16/13 Q1000 NOSIG RMK WHT WHT

TAF TAF EGDM
Valid from the 20 at 15:00 until the 20 at 18:00 UTC


201344Z 2015/2018 20015G25KT 9999 SCT020
BECMG 2015/2017 19013KT
TEMPO 2015/2018 FEW020



MET'MAP, your aeronautical weather chart ! - Copyright ORBIFLY December 2007 - Disclaimer

ORBIFLY MET'MAP TEAM :

Programming & Development : Alexandra Zaïnal
Concept & original design : Baudouin d'Aumeries
Assistance for programming : Marc-Olivier Méhu
Technical & hardware support : Manuel Goepfert

Contact : metmap@orbifly.com




SOURCES & CREDITS :

   NOAA